Latch, Texas
Current Conditions -  °F | °C
As of 3:55 PM on Wednesday 28 Jan 2015 (Local Time) from KJXI Reporting Station
Clear Clear  
Wind Chill: 76°   Ceiling: Unl
Heat Index: 76°   Visibility: 10mi
Dew Point: 43°   Wind: 8mph
Humidity: 32%   Direction: 180°S
Pressure: 30.04"   Gusts: NA
Location:  32.7353°N, 94.9492°W
Report Text: KJXI 282155Z AUTO 18007KT 10SM CLR 24/06 A3004 RMK AO2 T02420063
Loading
Personal Weather Stations






























Interactive Weather Map New forecast layout! Learn more

10-Day Weather Forecast

Advertisements
Track Severe Weather on mobile